Time;durP1;ratioP1;P1;durP2;ratioP2;P2;SDS_P1;SDS_P2;PMS_P1;PMS_P2;Temp;Humidity;BMP_temperature;BMP_pressure;BME280_temperature;BME280_humidity;BME280_pressure;Samples;Min_cycle;Max_cycle;Signal;HPM_P1;HPM_P2
2024/03/11 00:01:06;;;;;;;;;;;;;;;;;;4981669;28;19914;-68
2024/03/11 00:03:32;;;;;;;;;;;;;;;;;;4993908;28;20380;-65
2024/03/11 00:05:58;;;;;;;;;;;;;;;;;;4981026;28;20384;-65
2024/03/11 00:08:25;;;;;;;;;;;;;;;;;;4977208;28;19914;-65
2024/03/11 00:10:55;;;;;;;;;;;;;;;;;;4977139;28;20000;-67
2024/03/11 00:13:22;;;;;;;;;;;;;;;;;;4977386;28;19914;-68
2024/03/11 00:15:50;;;;;;;;;;;;;;;;;;4981442;28;20443;-65
2024/03/11 00:18:16;;;;;;;;;;;;;;;;;;4991585;28;20376;-65
2024/03/11 00:20:42;;;;;;;;;;;;;;;;;;4976859;28;19917;-66
2024/03/11 00:23:08;;;;;;;;;;;;;;;;;;4994664;28;19905;-65
2024/03/11 00:25:35;;;;;;;;;;;;;;;;;;4988735;28;20032;-66
2024/03/11 00:28:01;;;;;;;;;;;;;;;;;;4975658;28;19921;-65
2024/03/11 00:30:27;;;;;;;;;;;;;;;;;;4976682;28;19925;-68
2024/03/11 00:32:54;;;;;;;;;;;;;;;;;;4975827;28;19992;-66
2024/03/11 00:35:24;;;;;;;;;;;;;;;;;;4975507;28;19914;-65
2024/03/11 00:37:51;;;;;;;;;;;;;;;;;;4976900;28;20030;-66
2024/03/11 00:40:18;;;;;;;;;;;;;;;;;;4993698;28;19913;-65
2024/03/11 00:42:44;;;;;;;;;;;;;;;;;;4977438;28;20133;-68
2024/03/11 00:45:10;;;;;;;;;;;;;;;;;;4976853;28;19910;-67
2024/03/11 00:47:36;;;;;;;;;;;;;;;;;;4994639;28;19963;-66
2024/03/11 00:50:06;;;;;;;;;;;;;;;;;;4992956;28;19916;-66
2024/03/11 00:52:32;;;;;;;;;;;;;;;;;;4979263;28;19917;-66
2024/03/11 00:54:59;;;;;;;;;;;;;;;;;;4982799;28;19916;-66
2024/03/11 00:57:25;;;;;;;;;;;;;;;;;;4994644;28;19914;-66
2024/03/11 00:59:51;;;;;;;;;;;;;;;;;;4991289;28;19909;-65
2024/03/11 01:02:17;;;;;;;;;;;;;;;;;;4989570;28;19914;-66
2024/03/11 01:04:45;;;;;;;;;;;;;;;;;;4993206;28;19914;-65
2024/03/11 01:07:11;;;;;;;;;;;;;;;;;;4979554;28;20005;-65
2024/03/11 01:09:37;;;;;;;;;;;;;;;;;;4973600;28;19910;-66
2024/03/11 01:12:03;;;;;;;;;;;;;;;;;;4985573;28;19953;-66
2024/03/11 01:14:30;;;;;;;;;;;;;;;;;;4994380;28;19913;-65
2024/03/11 01:16:56;;;;;;;;;;;;;;;;;;4986402;28;19913;-65
2024/03/11 01:19:23;;;;;;;;;;;;;;;;;;4976296;28;20362;-65
2024/03/11 01:21:49;;;;;;;;;;;;;;;;;;4980120;28;19920;-65
2024/03/11 01:24:16;;;;;;;;;;;;;;;;;;4994474;28;20007;-66
2024/03/11 01:26:47;;;;;;;;;;;;;;;;;;4994209;28;20454;-67
2024/03/11 01:29:13;;;;;;;;;;;;;;;;;;4994026;28;19937;-66
2024/03/11 01:31:42;;;;;;;;;;;;;;;;;;4994125;28;19909;-66
2024/03/11 01:34:08;;;;;;;;;;;;;;;;;;4986098;28;19910;-65
2024/03/11 01:36:36;;;;;;;;;;;;;;;;;;4973131;28;20353;-65
2024/03/11 01:39:04;;;;;;;;;;;;;;;;;;4973511;28;20387;-65
2024/03/11 01:41:30;;;;;;;;;;;;;;;;;;4974403;28;19977;-65
2024/03/11 01:43:56;;;;;;;;;;;;;;;;;;4973302;28;19961;-66
2024/03/11 01:46:23;;;;;;;;;;;;;;;;;;4974283;28;19910;-65
2024/03/11 01:48:49;;;;;;;;;;;;;;;;;;4974795;28;19910;-66
2024/03/11 01:51:17;;;;;;;;;;;;;;;;;;4974507;28;20323;-66
2024/03/11 01:53:43;;;;;;;;;;;;;;;;;;4974294;28;20327;-67
2024/03/11 01:56:09;;;;;;;;;;;;;;;;;;4974026;28;19957;-67
2024/03/11 01:58:35;;;;;;;;;;;;;;;;;;4974489;28;20296;-67
2024/03/11 02:01:01;;;;;;;;;;;;;;;;;;4974022;28;19921;-67
2024/03/11 02:03:27;;;;;;;;;;;;;;;;;;4974037;28;19948;-67
2024/03/11 02:05:54;;;;;;;;;;;;;;;;;;4973802;28;19957;-66
2024/03/11 02:08:23;;;;;;;;;;;;;;;;;;4973923;28;19917;-66
2024/03/11 02:10:49;;;;;;;;;;;;;;;;;;4981749;28;20438;-65
2024/03/11 02:13:15;;;;;;;;;;;;;;;;;;4993399;28;19917;-65
2024/03/11 02:15:42;;;;;;;;;;;;;;;;;;4993241;28;20319;-66
2024/03/11 02:18:14;;;;;;;;;;;;;;;;;;4993056;28;20364;-65
2024/03/11 02:20:41;;;;;;;;;;;;;;;;;;4983473;28;20017;-65
2024/03/11 02:23:07;;;;;;;;;;;;;;;;;;4981625;28;19914;-68
2024/03/11 02:25:33;;;;;;;;;;;;;;;;;;4986012;28;19937;-68
2024/03/11 02:28:00;;;;;;;;;;;;;;;;;;4987577;28;19964;-67
2024/03/11 02:30:26;;;;;;;;;;;;;;;;;;4990561;28;20368;-66
2024/03/11 02:32:52;;;;;;;;;;;;;;;;;;4973652;28;20316;-66
2024/03/11 02:35:18;;;;;;;;;;;;;;;;;;4973462;28;20004;-66
2024/03/11 02:37:44;;;;;;;;;;;;;;;;;;4973566;28;19909;-66
2024/03/11 02:40:10;;;;;;;;;;;;;;;;;;4973380;28;19956;-65
2024/03/11 02:42:36;;;;;;;;;;;;;;;;;;4974393;28;19910;-65
2024/03/11 02:45:05;;;;;;;;;;;;;;;;;;4991586;28;19953;-66
2024/03/11 02:47:31;;;;;;;;;;;;;;;;;;4991043;28;19952;-65
2024/03/11 02:49:57;;;;;;;;;;;;;;;;;;4992729;28;19910;-65
2024/03/11 02:52:23;;;;;;;;;;;;;;;;;;4992814;28;20000;-65
2024/03/11 02:54:51;;;;;;;;;;;;;;;;;;4991513;28;19910;-65
2024/03/11 02:57:22;;;;;;;;;;;;;;;;;;4991380;28;19910;-65
2024/03/11 02:59:50;;;;;;;;;;;;;;;;;;4992495;28;20000;-65
2024/03/11 03:02:16;;;;;;;;;;;;;;;;;;4992517;28;19963;-65
2024/03/11 03:04:42;;;;;;;;;;;;;;;;;;4992753;28;19910;-65
2024/03/11 03:07:08;;;;;;;;;;;;;;;;;;4992493;28;20292;-65
2024/03/11 03:09:36;;;;;;;;;;;;;;;;;;4992474;28;20299;-66
2024/03/11 03:12:02;;;;;;;;;;;;;;;;;;4992562;28;20192;-65
2024/03/11 03:14:29;;;;;;;;;;;;;;;;;;4992577;28;19916;-67
2024/03/11 03:16:55;;;;;;;;;;;;;;;;;;4992391;28;19914;-65
2024/03/11 03:19:21;;;;;;;;;;;;;;;;;;4989667;28;19910;-66
2024/03/11 03:21:47;;;;;;;;;;;;;;;;;;4972994;28;19916;-66
2024/03/11 03:24:13;;;;;;;;;;;;;;;;;;4973076;28;20372;-65
2024/03/11 03:26:39;;;;;;;;;;;;;;;;;;4972965;28;19914;-66
2024/03/11 03:29:06;;;;;;;;;;;;;;;;;;4972864;28;20009;-66
2024/03/11 03:31:32;;;;;;;;;;;;;;;;;;4973021;28;20392;-65
2024/03/11 03:33:58;;;;;;;;;;;;;;;;;;4971782;28;19910;-65
2024/03/11 03:36:24;;;;;;;;;;;;;;;;;;4955540;28;20358;-65
2024/03/11 03:38:50;;;;;;;;;;;;;;;;;;4972924;28;19911;-65
2024/03/11 03:41:16;;;;;;;;;;;;;;;;;;4955455;28;19917;-65
2024/03/11 03:43:43;;;;;;;;;;;;;;;;;;4972974;28;20344;-65
2024/03/11 03:46:09;;;;;;;;;;;;;;;;;;4982534;28;20278;-65
2024/03/11 03:48:35;;;;;;;;;;;;;;;;;;4973187;28;20008;-65
2024/03/11 03:51:04;;;;;;;;;;;;;;;;;;4976752;28;19933;-68
2024/03/11 03:53:30;;;;;;;;;;;;;;;;;;4979842;28;19910;-66
2024/03/11 03:55:57;;;;;;;;;;;;;;;;;;4982320;28;20053;-65
2024/03/11 03:58:23;;;;;;;;;;;;;;;;;;4985092;28;19913;-68
2024/03/11 04:00:49;;;;;;;;;;;;;;;;;;4992841;28;20394;-67
2024/03/11 04:03:15;;;;;;;;;;;;;;;;;;4992975;28;19909;-67
2024/03/11 04:05:41;;;;;;;;;;;;;;;;;;4994147;28;19957;-67
2024/03/11 04:08:08;;;;;;;;;;;;;;;;;;4987731;28;19953;-67
2024/03/11 04:10:34;;;;;;;;;;;;;;;;;;4976147;28;19949;-66
2024/03/11 04:13:00;;;;;;;;;;;;;;;;;;4976308;28;19910;-65
2024/03/11 04:15:29;;;;;;;;;;;;;;;;;;4981618;28;20288;-66
2024/03/11 04:17:55;;;;;;;;;;;;;;;;;;4991253;28;19916;-68
2024/03/11 04:20:27;;;;;;;;;;;;;;;;;;4993295;28;20372;-68
2024/03/11 04:22:53;;;;;;;;;;;;;;;;;;4975935;28;19977;-66
2024/03/11 04:25:19;;;;;;;;;;;;;;;;;;4987482;28;19949;-66
2024/03/11 04:27:45;;;;;;;;;;;;;;;;;;4995043;28;19916;-66
2024/03/11 04:30:12;;;;;;;;;;;;;;;;;;4994119;28;20387;-66
2024/03/11 04:32:39;;;;;;;;;;;;;;;;;;4976830;28;20010;-69
2024/03/11 04:35:05;;;;;;;;;;;;;;;;;;4974412;28;20384;-70
2024/03/11 04:37:31;;;;;;;;;;;;;;;;;;4983208;28;19988;-66
2024/03/11 04:39:58;;;;;;;;;;;;;;;;;;4990236;28;20435;-66
2024/03/11 04:42:24;;;;;;;;;;;;;;;;;;4978071;28;19960;-66
2024/03/11 04:44:50;;;;;;;;;;;;;;;;;;4993780;28;19916;-67
2024/03/11 04:47:16;;;;;;;;;;;;;;;;;;4982820;28;20287;-68
2024/03/11 04:49:42;;;;;;;;;;;;;;;;;;4993107;28;19909;-68
2024/03/11 04:52:08;;;;;;;;;;;;;;;;;;4989358;28;19910;-63
2024/03/11 04:54:34;;;;;;;;;;;;;;;;;;4975291;28;19992;-63
2024/03/11 04:57:01;;;;;;;;;;;;;;;;;;4974940;28;19910;-65
2024/03/11 04:59:27;;;;;;;;;;;;;;;;;;4975122;28;20361;-64
2024/03/11 05:01:53;;;;;;;;;;;;;;;;;;4975170;28;19914;-64
2024/03/11 05:04:20;;;;;;;;;;;;;;;;;;4975256;28;19913;-64
2024/03/11 05:06:46;;;;;;;;;;;;;;;;;;4974998;28;19997;-64
2024/03/11 05:09:12;;;;;;;;;;;;;;;;;;4974744;28;19910;-64
2024/03/11 05:11:38;;;;;;;;;;;;;;;;;;4975023;28;20164;-65
2024/03/11 05:14:06;;;;;;;;;;;;;;;;;;4975165;28;19906;-65
2024/03/11 05:16:32;;;;;;;;;;;;;;;;;;4974984;28;19917;-66
2024/03/11 05:18:58;;;;;;;;;;;;;;;;;;4973806;28;20001;-66
2024/03/11 05:21:25;;;;;;;;;;;;;;;;;;4974777;28;19996;-65
2024/03/11 05:23:51;;;;;;;;;;;;;;;;;;4974861;28;19906;-65
2024/03/11 05:26:18;;;;;;;;;;;;;;;;;;4974759;28;19916;-65
2024/03/11 05:28:44;;;;;;;;;;;;;;;;;;4973924;28;19914;-63
2024/03/11 05:31:11;;;;;;;;;;;;;;;;;;4974837;28;20384;-64
2024/03/11 05:33:37;;;;;;;;;;;;;;;;;;4974705;28;20376;-63
2024/03/11 05:36:03;;;;;;;;;;;;;;;;;;4974311;28;19906;-63
2024/03/11 05:38:29;;;;;;;;;;;;;;;;;;4974421;28;19910;-64
2024/03/11 05:40:56;;;;;;;;;;;;;;;;;;4974860;28;20262;-63
2024/03/11 05:43:22;;;;;;;;;;;;;;;;;;4974617;28;19910;-64
2024/03/11 05:45:49;;;;;;;;;;;;;;;;;;4974405;28;19906;-64
2024/03/11 05:48:19;;;;;;;;;;;;;;;;;;4974580;28;19964;-63
2024/03/11 05:50:46;;;;;;;;;;;;;;;;;;4974302;28;19918;-63
2024/03/11 05:53:12;;;;;;;;;;;;;;;;;;4974414;28;19945;-63
2024/03/11 05:55:41;;;;;;;;;;;;;;;;;;4974249;28;20332;-63
2024/03/11 05:58:14;;;;;;;;;;;;;;;;;;4973097;28;19914;-63
2024/03/11 06:00:46;;;;;;;;;;;;;;;;;;4974305;28;19910;-64
2024/03/11 06:03:12;;;;;;;;;;;;;;;;;;4974080;28;19921;-64
2024/03/11 06:05:38;;;;;;;;;;;;;;;;;;4972662;28;19957;-64
2024/03/11 06:08:04;;;;;;;;;;;;;;;;;;4972857;28;19910;-63
2024/03/11 06:10:30;;;;;;;;;;;;;;;;;;4974056;28;19906;-63
2024/03/11 06:12:57;;;;;;;;;;;;;;;;;;4974116;28;19956;-63
2024/03/11 06:15:27;;;;;;;;;;;;;;;;;;4973847;28;19910;-63
2024/03/11 06:17:53;;;;;;;;;;;;;;;;;;4973992;28;20001;-63
2024/03/11 06:20:20;;;;;;;;;;;;;;;;;;4973877;28;20013;-63
2024/03/11 06:22:46;;;;;;;;;;;;;;;;;;4973332;28;19910;-63
2024/03/11 06:25:12;;;;;;;;;;;;;;;;;;4972581;28;19997;-63
2024/03/11 06:27:39;;;;;;;;;;;;;;;;;;4973886;28;19965;-64
2024/03/11 06:30:05;;;;;;;;;;;;;;;;;;4973625;28;20299;-63
2024/03/11 06:32:32;;;;;;;;;;;;;;;;;;4973773;28;19914;-64
2024/03/11 06:34:58;;;;;;;;;;;;;;;;;;4977560;28;20270;-63
2024/03/11 06:37:24;;;;;;;;;;;;;;;;;;4993132;28;19910;-64
2024/03/11 06:39:50;;;;;;;;;;;;;;;;;;4993108;28;20429;-64
2024/03/11 06:42:16;;;;;;;;;;;;;;;;;;5008208;28;20376;-64
2024/03/11 06:44:43;;;;;;;;;;;;;;;;;;4993022;28;19909;-64
2024/03/11 06:47:09;;;;;;;;;;;;;;;;;;4992749;28;19948;-64
2024/03/11 06:49:36;;;;;;;;;;;;;;;;;;4992781;28;19921;-63
2024/03/11 06:52:02;;;;;;;;;;;;;;;;;;4991795;28;19916;-64
2024/03/11 06:54:28;;;;;;;;;;;;;;;;;;4992943;28;19982;-63
2024/03/11 06:56:54;;;;;;;;;;;;;;;;;;5008126;28;20425;-63
2024/03/11 06:59:20;;;;;;;;;;;;;;;;;;4992870;28;19918;-63
2024/03/11 07:01:46;;;;;;;;;;;;;;;;;;4992759;28;20072;-64
2024/03/11 07:04:12;;;;;;;;;;;;;;;;;;5008177;28;20348;-64
2024/03/11 07:06:44;;;;;;;;;;;;;;;;;;4992793;28;19909;-63
2024/03/11 07:09:11;;;;;;;;;;;;;;;;;;4992888;28;20338;-63
2024/03/11 07:11:37;;;;;;;;;;;;;;;;;;4992789;28;19913;-63
2024/03/11 07:14:04;;;;;;;;;;;;;;;;;;4991574;28;20286;-63
2024/03/11 07:16:31;;;;;;;;;;;;;;;;;;4992664;28;19909;-63
2024/03/11 07:18:57;;;;;;;;;;;;;;;;;;4992676;28;20001;-63
2024/03/11 07:21:29;;;;;;;;;;;;;;;;;;4992561;28;19921;-64
2024/03/11 07:23:56;;;;;;;;;;;;;;;;;;4992657;28;20398;-64
2024/03/11 07:26:22;;;;;;;;;;;;;;;;;;4992452;28;19912;-64
2024/03/11 07:28:48;;;;;;;;;;;;;;;;;;4992399;28;19914;-63
2024/03/11 07:31:15;;;;;;;;;;;;;;;;;;4988061;28;19918;-64
2024/03/11 07:33:42;;;;;;;;;;;;;;;;;;4993465;28;19993;-63
2024/03/11 07:36:08;;;;;;;;;;;;;;;;;;4996235;28;19912;-63
2024/03/11 07:38:35;;;;;;;;;;;;;;;;;;4996361;28;20300;-63
2024/03/11 07:41:01;;;;;;;;;;;;;;;;;;4996140;28;20000;-63
2024/03/11 07:43:27;;;;;;;;;;;;;;;;;;4996300;28;19922;-63
2024/03/11 07:45:53;;;;;;;;;;;;;;;;;;4996019;28;20461;-63
2024/03/11 07:48:22;;;;;;;;;;;;;;;;;;4994791;28;19916;-63
2024/03/11 07:50:49;;;;;;;;;;;;;;;;;;4996113;28;19909;-63
2024/03/11 07:53:16;;;;;;;;;;;;;;;;;;4996131;28;19916;-63
2024/03/11 07:55:42;;;;;;;;;;;;;;;;;;4995786;28;20383;-57
2024/03/11 07:58:08;;;;;;;;;;;;;;;;;;4995875;28;19909;-54
2024/03/11 08:00:37;;;;;;;;;;;;;;;;;;4995938;28;19914;-63
2024/03/11 08:03:04;;;;;;;;;;;;;;;;;;4995830;28;19968;-63
2024/03/11 08:05:30;;;;;;;;;;;;;;;;;;4995725;28;19909;-62
2024/03/11 08:07:59;;;;;;;;;;;;;;;;;;4995804;28;19916;-63
2024/03/11 08:10:28;;;;;;;;;;;;;;;;;;4995660;28;19909;-63
2024/03/11 08:12:56;;;;;;;;;;;;;;;;;;4995730;28;20307;-63
2024/03/11 08:15:22;;;;;;;;;;;;;;;;;;4995651;28;19944;-63
2024/03/11 08:17:49;;;;;;;;;;;;;;;;;;4994540;28;19909;-63
2024/03/11 08:20:18;;;;;;;;;;;;;;;;;;4995519;28;19916;-64
2024/03/11 08:22:45;;;;;;;;;;;;;;;;;;4995342;28;19922;-63
2024/03/11 08:25:11;;;;;;;;;;;;;;;;;;4995363;28;19910;-61
2024/03/11 08:27:37;;;;;;;;;;;;;;;;;;4995548;28;19952;-61
2024/03/11 08:30:04;;;;;;;;;;;;;;;;;;4995340;28;19913;-61
2024/03/11 08:32:31;;;;;;;;;;;;;;;;;;4995274;28;19909;-62
2024/03/11 08:34:58;;;;;;;;;;;;;;;;;;4995245;28;19964;-62
2024/03/11 08:37:24;;;;;;;;;;;;;;;;;;4995095;28;19914;-62
2024/03/11 08:39:51;;;;;;;;;;;;;;;;;;4995323;28;19910;-62
2024/03/11 08:42:18;;;;;;;;;;;;;;;;;;4995106;28;19992;-62
2024/03/11 08:44:45;;;;;;;;;;;;;;;;;;4994301;28;19975;-62
2024/03/11 08:47:14;;;;;;;;;;;;;;;;;;4994920;28;20340;-61
2024/03/11 08:49:40;;;;;;;;;;;;;;;;;;4994953;28;19917;-59
2024/03/11 08:52:06;;;;;;;;;;;;;;;;;;4995069;28;20257;-55
2024/03/11 08:54:32;;;;;;;;;;;;;;;;;;4995193;28;19910;-62
2024/03/11 08:56:59;;;;;;;;;;;;;;;;;;4994871;28;19964;-51
2024/03/11 08:59:26;;;;;;;;;;;;;;;;;;4994933;28;19909;-61
2024/03/11 09:01:57;;;;;;;;;;;;;;;;;;4994748;28;19914;-62
2024/03/11 09:04:23;;;;;;;;;;;;;;;;;;4994643;28;19944;-61
2024/03/11 09:06:49;;;;;;;;;;;;;;;;;;4994654;28;19916;-61
2024/03/11 09:09:15;;;;;;;;;;;;;;;;;;4994957;28;20331;-62
2024/03/11 09:11:41;;;;;;;;;;;;;;;;;;5009698;28;19909;-62
2024/03/11 09:14:07;;;;;;;;;;;;;;;;;;4994673;28;19917;-62
2024/03/11 09:16:36;;;;;;;;;;;;;;;;;;4994429;28;20355;-62
2024/03/11 09:19:03;;;;;;;;;;;;;;;;;;4994443;28;19906;-61
2024/03/11 09:21:31;;;;;;;;;;;;;;;;;;4994289;28;19967;-62
2024/03/11 09:23:57;;;;;;;;;;;;;;;;;;4994418;28;19917;-62
2024/03/11 09:26:23;;;;;;;;;;;;;;;;;;5009225;28;19910;-61
2024/03/11 09:28:49;;;;;;;;;;;;;;;;;;4994136;28;19914;-62
2024/03/11 09:31:15;;;;;;;;;;;;;;;;;;4994209;28;20000;-62
2024/03/11 09:33:42;;;;;;;;;;;;;;;;;;4992879;28;19909;-62
2024/03/11 09:36:08;;;;;;;;;;;;;;;;;;4992755;28;19910;-63
2024/03/11 09:38:34;;;;;;;;;;;;;;;;;;4994096;28;19976;-61
2024/03/11 09:41:00;;;;;;;;;;;;;;;;;;4994030;28;19963;-61
2024/03/11 09:43:27;;;;;;;;;;;;;;;;;;4993967;28;19906;-61
2024/03/11 09:45:53;;;;;;;;;;;;;;;;;;4992570;28;19918;-61
2024/03/11 09:48:20;;;;;;;;;;;;;;;;;;4993674;28;20414;-62
2024/03/11 09:50:46;;;;;;;;;;;;;;;;;;4992898;28;20299;-62
2024/03/11 09:53:13;;;;;;;;;;;;;;;;;;4993620;28;19912;-61
2024/03/11 09:55:43;;;;;;;;;;;;;;;;;;4993545;28;20456;-61
2024/03/11 09:58:10;;;;;;;;;;;;;;;;;;4992421;28;20153;-61
2024/03/11 10:00:48;;;;;;;;;;;;;;;;;;4993541;28;20287;-61
2024/03/11 10:03:14;;;;;;;;;;;;;;;;;;4992380;28;19921;-61
2024/03/11 10:05:40;;;;;;;;;;;;;;;;;;4992159;28;19914;-61
2024/03/11 10:08:06;;;;;;;;;;;;;;;;;;4993490;28;19909;-62
2024/03/11 10:10:32;;;;;;;;;;;;;;;;;;4993471;28;19910;-61
2024/03/11 10:13:00;;;;;;;;;;;;;;;;;;4993863;28;19932;-61
2024/03/11 10:15:30;;;;;;;;;;;;;;;;;;4993147;28;20000;-61
2024/03/11 10:17:56;;;;;;;;;;;;;;;;;;4993517;28;19954;-61
2024/03/11 10:20:23;;;;;;;;;;;;;;;;;;4993256;28;19910;-62
2024/03/11 10:22:50;;;;;;;;;;;;;;;;;;4993091;28;19910;-61
2024/03/11 10:25:16;;;;;;;;;;;;;;;;;;4993154;28;20402;-62
2024/03/11 10:27:43;;;;;;;;;;;;;;;;;;4993032;28;19910;-61
2024/03/11 10:30:11;;;;;;;;;;;;;;;;;;4992923;28;19921;-61
2024/03/11 10:32:38;;;;;;;;;;;;;;;;;;5008290;28;20369;-61
2024/03/11 10:35:04;;;;;;;;;;;;;;;;;;4993108;28;19949;-61
2024/03/11 10:37:30;;;;;;;;;;;;;;;;;;4993029;28;20476;-61
2024/03/11 10:40:00;;;;;;;;;;;;;;;;;;4993374;28;20356;-61
2024/03/11 10:42:32;;;;;;;;;;;;;;;;;;4992865;28;19921;-61
2024/03/11 10:44:58;;;;;;;;;;;;;;;;;;4992917;28;19910;-61
2024/03/11 10:47:24;;;;;;;;;;;;;;;;;;4992781;28;19917;-61
2024/03/11 10:49:50;;;;;;;;;;;;;;;;;;4992785;28;19909;-61
2024/03/11 10:52:16;;;;;;;;;;;;;;;;;;4992889;28;19910;-61
2024/03/11 10:54:42;;;;;;;;;;;;;;;;;;4991653;28;20125;-62
2024/03/11 10:57:11;;;;;;;;;;;;;;;;;;4992627;28;19921;-62
2024/03/11 10:59:38;;;;;;;;;;;;;;;;;;4992989;28;19971;-61
2024/03/11 11:02:07;;;;;;;;;;;;;;;;;;4992717;28;19920;-61
2024/03/11 11:04:33;;;;;;;;;;;;;;;;;;4992772;28;19910;-61
2024/03/11 11:07:00;;;;;;;;;;;;;;;;;;4992683;28;19956;-62
2024/03/11 11:09:27;;;;;;;;;;;;;;;;;;4999050;28;19917;-62
2024/03/11 11:11:54;;;;;;;;;;;;;;;;;;4994927;28;20017;-61
2024/03/11 11:14:20;;;;;;;;;;;;;;;;;;4982817;28;19910;-61
2024/03/11 11:16:48;;;;;;;;;;;;;;;;;;4992158;28;19913;-61
2024/03/11 11:19:17;;;;;;;;;;;;;;;;;;4990934;28;19917;-61
2024/03/11 11:21:43;;;;;;;;;;;;;;;;;;4967783;28;19955;-61
2024/03/11 11:24:10;;;;;;;;;;;;;;;;;;4989071;28;19916;-60
2024/03/11 11:26:38;;;;;;;;;;;;;;;;;;4953927;28;19930;-61
2024/03/11 11:29:05;;;;;;;;;;;;;;;;;;4983181;28;20392;-59
2024/03/11 11:31:32;;;;;;;;;;;;;;;;;;4984121;28;19913;-61
2024/03/11 11:34:02;;;;;;;;;;;;;;;;;;4990001;28;19951;-60
2024/03/11 11:36:28;;;;;;;;;;;;;;;;;;4991618;28;20299;-62
2024/03/11 11:38:56;;;;;;;;;;;;;;;;;;4996859;28;19956;-61
2024/03/11 11:41:23;;;;;;;;;;;;;;;;;;4994703;28;20376;-60
2024/03/11 11:43:54;;;;;;;;;;;;;;;;;;4994667;28;19994;-61
2024/03/11 11:46:20;;;;;;;;;;;;;;;;;;4995482;28;19914;-61
2024/03/11 11:48:46;;;;;;;;;;;;;;;;;;4989335;28;20376;-61
2024/03/11 11:51:13;;;;;;;;;;;;;;;;;;4988050;28;20012;-63
2024/03/11 11:53:40;;;;;;;;;;;;;;;;;;4995895;28;19936;-62
2024/03/11 11:56:09;;;;;;;;;;;;;;;;;;4986504;28;19913;-59
2024/03/11 11:58:36;;;;;;;;;;;;;;;;;;4984283;28;20016;-62
2024/03/11 12:01:03;;;;;;;;;;;;;;;;;;4990072;28;19910;-61
2024/03/11 12:03:31;;;;;;;;;;;;;;;;;;4990081;28;19913;-60
2024/03/11 12:05:58;;;;;;;;;;;;;;;;;;4995624;28;19925;-62
2024/03/11 12:08:24;;;;;;;;;;;;;;;;;;4995379;28;19913;-60
2024/03/11 12:10:50;;;;;;;;;;;;;;;;;;4986766;28;19909;-62
2024/03/11 12:13:17;;;;;;;;;;;;;;;;;;4985929;28;19917;-60
2024/03/11 12:15:45;;;;;;;;;;;;;;;;;;4985198;28;20380;-62
2024/03/11 12:18:11;;;;;;;;;;;;;;;;;;4977856;28;19910;-63
2024/03/11 12:20:37;;;;;;;;;;;;;;;;;;4972373;28;19910;-60
2024/03/11 12:23:03;;;;;;;;;;;;;;;;;;4982737;28;19914;-60
2024/03/11 12:25:32;;;;;;;;;;;;;;;;;;4974404;28;19909;-62
2024/03/11 12:28:19;;;;;;;;;;;;;;;;;;4974590;28;19952;-63
2024/03/11 12:30:46;;;;;;;;;;;;;;;;;;4975533;28;20419;-66
2024/03/11 12:33:14;;;;;;;;;;;;;;;;;;4975621;28;19956;-61
2024/03/11 12:35:43;;;;;;;;;;;;;;;;;;4974303;28;19914;-63
2024/03/11 12:38:10;;;;;;;;;;;;;;;;;;4974194;28;19913;-63
2024/03/11 12:40:42;;;;;;;;;;;;;;;;;;4972363;28;20004;-60
2024/03/11 12:43:09;;;;;;;;;;;;;;;;;;4981348;28;19918;-64
2024/03/11 12:45:35;;;;;;;;;;;;;;;;;;4988926;28;19910;-64
2024/03/11 12:48:01;;;;;;;;;;;;;;;;;;4974137;28;19926;-62
2024/03/11 12:50:29;;;;;;;;;;;;;;;;;;4974073;28;19956;-63
2024/03/11 12:52:55;;;;;;;;;;;;;;;;;;4981623;28;19910;-59
2024/03/11 12:55:21;;;;;;;;;;;;;;;;;;4992730;28;20002;-63
2024/03/11 12:57:48;;;;;;;;;;;;;;;;;;4991270;28;19914;-60
2024/03/11 13:00:14;;;;;;;;;;;;;;;;;;4990843;28;19916;-61
2024/03/11 13:02:40;;;;;;;;;;;;;;;;;;4982744;28;20316;-64
2024/03/11 13:05:06;;;;;;;;;;;;;;;;;;4981136;28;20023;-64
2024/03/11 13:07:32;;;;;;;;;;;;;;;;;;4973701;28;19920;-64
2024/03/11 13:09:59;;;;;;;;;;;;;;;;;;4973440;28;19969;-64
2024/03/11 13:12:28;;;;;;;;;;;;;;;;;;4980588;28;19914;-64
2024/03/11 13:14:55;;;;;;;;;;;;;;;;;;4973627;28;20282;-64
2024/03/11 13:17:22;;;;;;;;;;;;;;;;;;4991307;28;19920;-64
2024/03/11 13:19:48;;;;;;;;;;;;;;;;;;4991318;28;19917;-65
2024/03/11 13:22:18;;;;;;;;;;;;;;;;;;4975124;28;19914;-65
2024/03/11 13:24:44;;;;;;;;;;;;;;;;;;4992840;28;19960;-65
2024/03/11 13:27:11;;;;;;;;;;;;;;;;;;4968921;28;19996;-65
2024/03/11 13:29:37;;;;;;;;;;;;;;;;;;4992635;28;20364;-65
2024/03/11 13:32:04;;;;;;;;;;;;;;;;;;4976611;28;20280;-65
2024/03/11 13:34:34;;;;;;;;;;;;;;;;;;4973834;28;20365;-65
2024/03/11 13:37:00;;;;;;;;;;;;;;;;;;4971973;28;20372;-66
2024/03/11 13:39:36;;;;;;;;;;;;;;;;;;4971757;28;19924;-66
2024/03/11 13:42:02;;;;;;;;;;;;;;;;;;4974212;28;20377;-65
2024/03/11 13:44:28;;;;;;;;;;;;;;;;;;4974146;28;20442;-65
2024/03/11 13:46:54;;;;;;;;;;;;;;;;;;4987214;28;19914;-65
2024/03/11 13:49:24;;;;;;;;;;;;;;;;;;4988994;28;20537;-65
2024/03/11 13:51:50;;;;;;;;;;;;;;;;;;4984632;28;19910;-65
2024/03/11 13:54:16;;;;;;;;;;;;;;;;;;4990603;28;20364;-65
2024/03/11 13:56:42;;;;;;;;;;;;;;;;;;4987592;28;19909;-64
2024/03/11 13:59:08;;;;;;;;;;;;;;;;;;4971498;28;19993;-65
2024/03/11 14:01:34;;;;;;;;;;;;;;;;;;4982947;28;19940;-65
2024/03/11 14:04:01;;;;;;;;;;;;;;;;;;4981286;28;19917;-64
2024/03/11 14:06:27;;;;;;;;;;;;;;;;;;4972571;28;19910;-65
2024/03/11 14:08:53;;;;;;;;;;;;;;;;;;4975576;28;20332;-64
2024/03/11 14:11:20;;;;;;;;;;;;;;;;;;4972411;28;19914;-64
2024/03/11 14:13:46;;;;;;;;;;;;;;;;;;4979347;28;20008;-64
2024/03/11 14:16:12;;;;;;;;;;;;;;;;;;4981458;28;19952;-64
2024/03/11 14:18:38;;;;;;;;;;;;;;;;;;4971685;28;19921;-65
2024/03/11 14:21:08;;;;;;;;;;;;;;;;;;4991592;28;19910;-65
2024/03/11 14:23:36;;;;;;;;;;;;;;;;;;4984909;28;19964;-65
2024/03/11 14:26:02;;;;;;;;;;;;;;;;;;4971997;28;20376;-70
2024/03/11 14:28:28;;;;;;;;;;;;;;;;;;4972123;28;19914;-70
2024/03/11 14:30:56;;;;;;;;;;;;;;;;;;4978570;28;19910;-70
2024/03/11 14:33:23;;;;;;;;;;;;;;;;;;4986124;28;19932;-69
2024/03/11 14:35:49;;;;;;;;;;;;;;;;;;4973312;28;20442;-69
2024/03/11 14:38:15;;;;;;;;;;;;;;;;;;4980335;28;19924;-69
2024/03/11 14:40:41;;;;;;;;;;;;;;;;;;4988293;28;19953;-69
2024/03/11 14:43:12;;;;;;;;;;;;;;;;;;4987482;28;20430;-70
2024/03/11 14:45:38;;;;;;;;;;;;;;;;;;4990648;28;19913;-69
2024/03/11 14:48:09;;;;;;;;;;;;;;;;;;4971895;28;20332;-69
2024/03/11 14:50:36;;;;;;;;;;;;;;;;;;4983147;28;20396;-68
2024/03/11 14:53:06;;;;;;;;;;;;;;;;;;4984929;28;19916;-68
2024/03/11 14:55:36;;;;;;;;;;;;;;;;;;4977777;28;19914;-68
2024/03/11 14:58:04;;;;;;;;;;;;;;;;;;4978982;28;19910;-69
2024/03/11 15:00:35;;;;;;;;;;;;;;;;;;4978803;28;20293;-68
2024/03/11 15:03:02;;;;;;;;;;;;;;;;;;4978842;28;19914;-68
2024/03/11 15:05:29;;;;;;;;;;;;;;;;;;4979181;28;20388;-69
2024/03/11 15:07:59;;;;;;;;;;;;;;;;;;4991473;28;19914;-69
2024/03/11 15:10:32;;;;;;;;;;;;;;;;;;4990754;28;20450;-66
2024/03/11 15:12:59;;;;;;;;;;;;;;;;;;4992404;28;19932;-62
2024/03/11 15:15:25;;;;;;;;;;;;;;;;;;4986164;28;20280;-64
2024/03/11 15:17:51;;;;;;;;;;;;;;;;;;4984504;28;20292;-62
2024/03/11 15:20:18;;;;;;;;;;;;;;;;;;4983366;28;19910;-50
2024/03/11 15:22:44;;;;;;;;;;;;;;;;;;4974109;28;19914;-64
2024/03/11 15:25:11;;;;;;;;;;;;;;;;;;4971912;28;19910;-60
2024/03/11 15:27:38;;;;;;;;;;;;;;;;;;4973152;28;19909;-61
2024/03/11 15:30:04;;;;;;;;;;;;;;;;;;4972893;28;19969;-62
2024/03/11 15:32:30;;;;;;;;;;;;;;;;;;4984826;28;19909;-62
2024/03/11 15:34:56;;;;;;;;;;;;;;;;;;4981279;28;19965;-63
2024/03/11 15:37:23;;;;;;;;;;;;;;;;;;4972984;28;19910;-63
2024/03/11 15:39:49;;;;;;;;;;;;;;;;;;4972863;28;19959;-63
2024/03/11 15:42:18;;;;;;;;;;;;;;;;;;4978130;28;20009;-63
2024/03/11 15:44:44;;;;;;;;;;;;;;;;;;4971765;28;19932;-62
2024/03/11 15:47:10;;;;;;;;;;;;;;;;;;4987878;28;19910;-62
2024/03/11 15:49:36;;;;;;;;;;;;;;;;;;4983465;28;20348;-62
2024/03/11 15:52:08;;;;;;;;;;;;;;;;;;4982812;28;19955;-62
2024/03/11 15:54:35;;;;;;;;;;;;;;;;;;4986518;28;19916;-60
2024/03/11 15:57:01;;;;;;;;;;;;;;;;;;4992874;28;20284;-61
2024/03/11 15:59:27;;;;;;;;;;;;;;;;;;4992509;28;20368;-63
2024/03/11 16:01:56;;;;;;;;;;;;;;;;;;4992281;28;19914;-62
2024/03/11 16:04:22;;;;;;;;;;;;;;;;;;4987213;28;20284;-63
2024/03/11 16:06:49;;;;;;;;;;;;;;;;;;4965141;28;20008;-63
2024/03/11 16:10:04;;;;;;;;;;;;;;;;;;4982893;28;19936;-63
2024/03/11 16:12:01;;;;;;;;;;;;;;;;;;4980209;28;20324;-62
2024/03/11 16:14:27;;;;;;;;;;;;;;;;;;4982226;28;19932;-63
2024/03/11 16:16:53;;;;;;;;;;;;;;;;;;4984841;28;19910;-63
2024/03/11 16:19:29;;;;;;;;;;;;;;;;;;4986934;28;19965;-63
2024/03/11 16:21:55;;;;;;;;;;;;;;;;;;4983168;28;19929;-63
2024/03/11 16:24:22;;;;;;;;;;;;;;;;;;4980647;28;20439;-63
2024/03/11 16:26:48;;;;;;;;;;;;;;;;;;4985055;28;20008;-63
2024/03/11 16:29:14;;;;;;;;;;;;;;;;;;4987389;28;19960;-63
2024/03/11 16:31:41;;;;;;;;;;;;;;;;;;4988279;28;20235;-63
2024/03/11 16:34:10;;;;;;;;;;;;;;;;;;4986925;28;19910;-62
2024/03/11 16:36:37;;;;;;;;;;;;;;;;;;4986988;28;20288;-62
2024/03/11 16:39:03;;;;;;;;;;;;;;;;;;4982699;28;20336;-63
2024/03/11 16:41:29;;;;;;;;;;;;;;;;;;4981106;28;19974;-63
2024/03/11 16:43:56;;;;;;;;;;;;;;;;;;4983722;28;19914;-62